Arnaudville, LA

9:37 PM CDT on August 23, 2016 (GMT -0500)
Schoeffler | | Change Station
Active Advisory: Flood Warning

Elev 16 ft 30.34 °N, 91.97 °W | Updated 22 seconds ago

Clear
Clear
80.8 °F
Feels Like 89 °F
N
0.0
Wind Variable Wind from West
Gusts 1.0 mph

Today
High -- | Low -- °F
--% Chance of Precip.
Yesterday
High -- | Low -- °F
Precip. -- in
Pressure 30.14 in
Visibility 10.0 miles
Clouds Clear
Heat Index 89 °F
Dew Point 79 °F
Humidity 94%
Rainfall 0.00 in
Snow Depth Not available.
6:39 AM 7:40 PM
Waning Gibbous, 62% visible
METAR KLFT 240153Z 00000KT 10SM CLR 29/24 A3014 RMK AO2 SLP205 T02890244
Pressure 30.14 in
Visibility 10.0 miles
Clouds Clear
Heat Index 89 °F
Dew Point 79 °F
Humidity 94%
Rainfall 0.00 in
Snow Depth Not available.
6:39 AM 7:40 PM
Waning Gibbous, 62% visible
METAR KLFT 240153Z 00000KT 10SM CLR 29/24 A3014 RMK AO2 SLP205 T02890244

10-Day Weather Forecast

Almanac

Astronomy

Aug. 23, 2016 Rise Set
Actual Time
Civil Twilight
Nautical Twilight
Astronomical Twilight
Moon
Length of Visible Light
Length of Day
Tomorrow will be .
, % of the Moon is Illuminated

Today's Extremes

State Highs State Lows

Community

WunderPhotos

Upload Photos

1,934,528 photos uploaded!

WunderBlog® & News

Nearby

Air Quality

  Air Quality AQ Index Pollutant
Not available.

Snow Depth

Station Depth Elevation

Earthquake Activity

City Distance Mag. Time & Date
Minimum magnitude displayed is 2.5.

Coastal Water Temperatures

Place Temperature

Stations

Nearby Weather Stations

Station Location Temp. Windchill Dew Point Humidity Wind Precip. Elev Updated Type
                   

Watches & Warnings

Flood Warning
Issued: 9:05 PM CDT Aug. 23, 2016 – National Weather Service

The Flood Warning continues for
The Bayou Vermilion near Carencro.
* Until Friday afternoon... or until the warning is cancelled.
* At 8:00 PM Tuesday the stage was 18.2 feet.
* Minor flooding is occurring and minor flooding is forecast.
* Flood stage is 17.0 feet.
* Forecast... the river is expected to continue a slow fall, dropping
below flood stage early Friday morning.
* Impact... at stages near 18.0 feet... roads along bayou fuseilier
are impassable. These include but are not limited to Walnut and
green roads along the St. Martin, St. Landry Parish line, as well
as meche Road in St. Landry Parish.


Lat... Lon 3026 9200 3028 9193 3031 9194 3032 9189
      3046 9198 3046 9201